KMFR/MFR METAR and TAF weather

Enter ICAO airport designator
Station Type Date Time Source
KMFR METAR 2021/09/16 10:53 UTC NOAA

KMFR 161053Z AUTO 21003KT 10SM CLR 13/06 A2999 RMK AO2 SLP147 T01280056


Station Type Date Time Source
KMFR Decoded METAR 2021/09/16 10:53 UTC NOAA

ROGUE VALLEY INTERNATIONAL AIRPORT, OR, United States (KMFR) 42-23N 122-53W 396M
Sep 16, 2021 - 06:53 AM EDT / 2021.09.16 1053 UTC
Wind: from the SSW (210 degrees) at 3 MPH (3 KT):0
Visibility: 10 mile(s):0
Sky conditions: clear
Temperature: 55.0 F (12.8 C)
Dew Point: 42.1 F (5.6 C)
Relative Humidity: 61%
Pressure (altimeter): 29.99 in. Hg (1015 hPa)
ob: KMFR 161053Z AUTO 21003KT 10SM CLR 13/06 A2999 RMK AO2 SLP147 T01280056
cycle: 11

Station Type Date Time Source
KMFR TAF 2021/09/16 06:42 UTC NOAA

TAF KMFR 160539Z 1606/1706 VRB03KT 6SM FU SKC
FM162200 31007KT P6SM SKC
FM170400 VRB03KT 6SM FU SCT250

Example: see airport list